sensor_id;sensor_type;location;lat;lon;timestamp;P1;durP1;ratioP1;P2;durP2;ratioP2
77520;SDS011;66633;47.628;19.158;2024-01-30T00:01:08;50.53;;;20.65;;
77520;SDS011;66633;47.628;19.158;2024-01-30T00:03:33;51.30;;;21.63;;
77520;SDS011;66633;47.628;19.158;2024-01-30T00:05:59;61.90;;;29.30;;
77520;SDS011;66633;47.628;19.158;2024-01-30T00:08:24;67.67;;;30.27;;
77520;SDS011;66633;47.628;19.158;2024-01-30T00:10:49;59.60;;;25.43;;
77520;SDS011;66633;47.628;19.158;2024-01-30T00:13:14;53.70;;;22.90;;
77520;SDS011;66633;47.628;19.158;2024-01-30T00:15:42;51.35;;;23.88;;
77520;SDS011;66633;47.628;19.158;2024-01-30T00:18:08;64.50;;;29.23;;
77520;SDS011;66633;47.628;19.158;2024-01-30T00:20:33;45.15;;;21.23;;
77520;SDS011;66633;47.628;19.158;2024-01-30T00:22:58;46.97;;;21.60;;
77520;SDS011;66633;47.628;19.158;2024-01-30T00:25:23;49.92;;;22.90;;
77520;SDS011;66633;47.628;19.158;2024-01-30T00:27:49;55.60;;;25.03;;
77520;SDS011;66633;47.628;19.158;2024-01-30T00:30:14;51.97;;;24.58;;
77520;SDS011;66633;47.628;19.158;2024-01-30T00:32:39;49.22;;;22.40;;
77520;SDS011;66633;47.628;19.158;2024-01-30T00:35:05;48.50;;;21.63;;
77520;SDS011;66633;47.628;19.158;2024-01-30T00:37:30;50.58;;;22.25;;
77520;SDS011;66633;47.628;19.158;2024-01-30T00:39:56;50.28;;;22.52;;
77520;SDS011;66633;47.628;19.158;2024-01-30T00:42:22;42.17;;;18.77;;
77520;SDS011;66633;47.628;19.158;2024-01-30T00:44:48;47.42;;;20.55;;
77520;SDS011;66633;47.628;19.158;2024-01-30T00:47:14;46.38;;;18.73;;
77520;SDS011;66633;47.628;19.158;2024-01-30T00:49:39;45.50;;;18.90;;
77520;SDS011;66633;47.628;19.158;2024-01-30T00:52:04;43.23;;;19.90;;
77520;SDS011;66633;47.628;19.158;2024-01-30T00:54:29;40.33;;;18.20;;
77520;SDS011;66633;47.628;19.158;2024-01-30T00:56:55;43.00;;;18.60;;
77520;SDS011;66633;47.628;19.158;2024-01-30T00:59:20;41.70;;;17.33;;
77520;SDS011;66633;47.628;19.158;2024-01-30T01:01:45;41.30;;;18.37;;
77520;SDS011;66633;47.628;19.158;2024-01-30T01:04:10;34.13;;;15.77;;
77520;SDS011;66633;47.628;19.158;2024-01-30T01:06:36;37.60;;;14.95;;
77520;SDS011;66633;47.628;19.158;2024-01-30T01:09:01;35.17;;;16.13;;
77520;SDS011;66633;47.628;19.158;2024-01-30T01:11:28;35.35;;;16.42;;
77520;SDS011;66633;47.628;19.158;2024-01-30T01:13:53;36.25;;;15.20;;
77520;SDS011;66633;47.628;19.158;2024-01-30T01:16:18;62.63;;;22.30;;
77520;SDS011;66633;47.628;19.158;2024-01-30T01:18:43;50.03;;;21.33;;
77520;SDS011;66633;47.628;19.158;2024-01-30T01:21:09;53.88;;;20.80;;
77520;SDS011;66633;47.628;19.158;2024-01-30T01:23:34;63.60;;;23.15;;
77520;SDS011;66633;47.628;19.158;2024-01-30T01:25:59;61.83;;;23.97;;
77520;SDS011;66633;47.628;19.158;2024-01-30T01:28:25;53.85;;;23.85;;
77520;SDS011;66633;47.628;19.158;2024-01-30T01:30:52;60.28;;;23.08;;
77520;SDS011;66633;47.628;19.158;2024-01-30T01:33:17;57.83;;;23.03;;
77520;SDS011;66633;47.628;19.158;2024-01-30T01:35:42;68.25;;;25.33;;
77520;SDS011;66633;47.628;19.158;2024-01-30T01:38:07;54.22;;;21.65;;
77520;SDS011;66633;47.628;19.158;2024-01-30T01:40:33;51.03;;;21.50;;
77520;SDS011;66633;47.628;19.158;2024-01-30T01:42:58;42.33;;;19.17;;
77520;SDS011;66633;47.628;19.158;2024-01-30T01:45:23;42.47;;;17.27;;
77520;SDS011;66633;47.628;19.158;2024-01-30T01:47:51;37.40;;;16.37;;
77520;SDS011;66633;47.628;19.158;2024-01-30T01:50:16;36.47;;;15.65;;
77520;SDS011;66633;47.628;19.158;2024-01-30T01:52:49;38.47;;;14.80;;
77520;SDS011;66633;47.628;19.158;2024-01-30T01:55:15;35.97;;;14.27;;
77520;SDS011;66633;47.628;19.158;2024-01-30T01:57:42;37.85;;;15.57;;
77520;SDS011;66633;47.628;19.158;2024-01-30T02:00:08;30.67;;;13.50;;
77520;SDS011;66633;47.628;19.158;2024-01-30T02:02:35;35.35;;;14.15;;
77520;SDS011;66633;47.628;19.158;2024-01-30T02:05:01;28.88;;;12.80;;
77520;SDS011;66633;47.628;19.158;2024-01-30T02:07:27;28.30;;;12.88;;
77520;SDS011;66633;47.628;19.158;2024-01-30T02:09:52;29.73;;;12.95;;
77520;SDS011;66633;47.628;19.158;2024-01-30T02:12:17;28.83;;;12.35;;
77520;SDS011;66633;47.628;19.158;2024-01-30T02:14:46;32.20;;;13.70;;
77520;SDS011;66633;47.628;19.158;2024-01-30T02:17:12;29.75;;;12.32;;
77520;SDS011;66633;47.628;19.158;2024-01-30T02:19:37;29.92;;;13.32;;
77520;SDS011;66633;47.628;19.158;2024-01-30T02:22:02;31.17;;;13.43;;
77520;SDS011;66633;47.628;19.158;2024-01-30T02:24:28;26.17;;;11.68;;
77520;SDS011;66633;47.628;19.158;2024-01-30T02:26:53;26.05;;;11.80;;
77520;SDS011;66633;47.628;19.158;2024-01-30T02:29:18;28.03;;;13.47;;
77520;SDS011;66633;47.628;19.158;2024-01-30T02:31:43;27.13;;;13.00;;
77520;SDS011;66633;47.628;19.158;2024-01-30T02:34:10;36.08;;;14.77;;
77520;SDS011;66633;47.628;19.158;2024-01-30T02:36:36;38.30;;;16.67;;
77520;SDS011;66633;47.628;19.158;2024-01-30T02:39:01;33.77;;;15.37;;
77520;SDS011;66633;47.628;19.158;2024-01-30T02:41:26;37.33;;;16.15;;
77520;SDS011;66633;47.628;19.158;2024-01-30T02:43:52;33.40;;;15.90;;
77520;SDS011;66633;47.628;19.158;2024-01-30T02:46:17;29.40;;;14.07;;
77520;SDS011;66633;47.628;19.158;2024-01-30T02:48:42;33.20;;;14.23;;
77520;SDS011;66633;47.628;19.158;2024-01-30T02:51:07;34.03;;;13.20;;
77520;SDS011;66633;47.628;19.158;2024-01-30T02:53:33;29.48;;;12.85;;
77520;SDS011;66633;47.628;19.158;2024-01-30T02:55:58;27.67;;;12.00;;
77520;SDS011;66633;47.628;19.158;2024-01-30T02:58:23;30.07;;;13.40;;
77520;SDS011;66633;47.628;19.158;2024-01-30T03:00:48;30.47;;;13.27;;
77520;SDS011;66633;47.628;19.158;2024-01-30T03:03:13;34.63;;;14.30;;
77520;SDS011;66633;47.628;19.158;2024-01-30T03:05:39;32.83;;;13.27;;
77520;SDS011;66633;47.628;19.158;2024-01-30T03:08:04;31.33;;;14.47;;
77520;SDS011;66633;47.628;19.158;2024-01-30T03:10:29;31.42;;;14.20;;
77520;SDS011;66633;47.628;19.158;2024-01-30T03:12:55;34.83;;;14.37;;
77520;SDS011;66633;47.628;19.158;2024-01-30T03:15:20;27.33;;;14.02;;
77520;SDS011;66633;47.628;19.158;2024-01-30T03:17:45;30.55;;;14.15;;
77520;SDS011;66633;47.628;19.158;2024-01-30T03:20:11;30.23;;;12.97;;
77520;SDS011;66633;47.628;19.158;2024-01-30T03:22:36;34.25;;;14.18;;
77520;SDS011;66633;47.628;19.158;2024-01-30T03:25:01;29.70;;;12.30;;
77520;SDS011;66633;47.628;19.158;2024-01-30T03:27:26;28.70;;;13.35;;
77520;SDS011;66633;47.628;19.158;2024-01-30T03:29:52;34.10;;;14.30;;
77520;SDS011;66633;47.628;19.158;2024-01-30T03:32:17;27.13;;;11.47;;
77520;SDS011;66633;47.628;19.158;2024-01-30T03:34:42;29.13;;;12.60;;
77520;SDS011;66633;47.628;19.158;2024-01-30T03:37:07;30.23;;;13.57;;
77520;SDS011;66633;47.628;19.158;2024-01-30T03:39:33;32.75;;;13.95;;
77520;SDS011;66633;47.628;19.158;2024-01-30T03:41:58;31.83;;;14.10;;
77520;SDS011;66633;47.628;19.158;2024-01-30T03:44:23;29.53;;;13.20;;
77520;SDS011;66633;47.628;19.158;2024-01-30T03:46:49;30.60;;;14.67;;
77520;SDS011;66633;47.628;19.158;2024-01-30T03:49:14;30.40;;;14.70;;
77520;SDS011;66633;47.628;19.158;2024-01-30T03:51:40;31.35;;;14.27;;
77520;SDS011;66633;47.628;19.158;2024-01-30T03:54:05;39.58;;;16.30;;
77520;SDS011;66633;47.628;19.158;2024-01-30T03:56:30;48.33;;;20.90;;
77520;SDS011;66633;47.628;19.158;2024-01-30T03:58:56;48.13;;;22.70;;
77520;SDS011;66633;47.628;19.158;2024-01-30T04:01:22;42.53;;;18.83;;
77520;SDS011;66633;47.628;19.158;2024-01-30T04:03:47;44.17;;;19.00;;
77520;SDS011;66633;47.628;19.158;2024-01-30T04:06:12;41.17;;;17.53;;
77520;SDS011;66633;47.628;19.158;2024-01-30T04:08:37;36.30;;;16.77;;
77520;SDS011;66633;47.628;19.158;2024-01-30T04:11:03;36.33;;;15.97;;
77520;SDS011;66633;47.628;19.158;2024-01-30T04:13:29;36.42;;;16.52;;
77520;SDS011;66633;47.628;19.158;2024-01-30T04:15:54;35.87;;;16.80;;
77520;SDS011;66633;47.628;19.158;2024-01-30T04:18:21;33.60;;;15.30;;
77520;SDS011;66633;47.628;19.158;2024-01-30T04:20:46;34.57;;;16.13;;
77520;SDS011;66633;47.628;19.158;2024-01-30T04:23:11;35.93;;;16.20;;
77520;SDS011;66633;47.628;19.158;2024-01-30T04:25:37;36.13;;;16.83;;
77520;SDS011;66633;47.628;19.158;2024-01-30T04:28:02;42.85;;;18.10;;
77520;SDS011;66633;47.628;19.158;2024-01-30T04:30:27;32.47;;;16.55;;
77520;SDS011;66633;47.628;19.158;2024-01-30T04:32:52;35.97;;;15.80;;
77520;SDS011;66633;47.628;19.158;2024-01-30T04:35:18;37.63;;;16.97;;
77520;SDS011;66633;47.628;19.158;2024-01-30T04:37:45;35.58;;;17.25;;
77520;SDS011;66633;47.628;19.158;2024-01-30T04:40:10;38.43;;;18.73;;
77520;SDS011;66633;47.628;19.158;2024-01-30T04:42:36;35.15;;;15.40;;
77520;SDS011;66633;47.628;19.158;2024-01-30T04:45:02;32.07;;;14.50;;
77520;SDS011;66633;47.628;19.158;2024-01-30T04:47:27;34.13;;;15.95;;
77520;SDS011;66633;47.628;19.158;2024-01-30T04:49:53;29.67;;;14.70;;
77520;SDS011;66633;47.628;19.158;2024-01-30T04:52:18;34.67;;;15.43;;
77520;SDS011;66633;47.628;19.158;2024-01-30T04:54:43;45.23;;;19.17;;
77520;SDS011;66633;47.628;19.158;2024-01-30T04:57:08;40.63;;;18.67;;
77520;SDS011;66633;47.628;19.158;2024-01-30T04:59:37;48.28;;;22.83;;
77520;SDS011;66633;47.628;19.158;2024-01-30T05:02:02;46.83;;;19.53;;
77520;SDS011;66633;47.628;19.158;2024-01-30T05:04:27;42.45;;;19.42;;
77520;SDS011;66633;47.628;19.158;2024-01-30T05:06:53;36.27;;;17.50;;
77520;SDS011;66633;47.628;19.158;2024-01-30T05:09:18;32.63;;;15.48;;
77520;SDS011;66633;47.628;19.158;2024-01-30T05:11:44;40.60;;;17.33;;
77520;SDS011;66633;47.628;19.158;2024-01-30T05:14:09;45.50;;;19.25;;
77520;SDS011;66633;47.628;19.158;2024-01-30T05:16:36;37.47;;;16.38;;
77520;SDS011;66633;47.628;19.158;2024-01-30T05:19:04;36.70;;;16.45;;
77520;SDS011;66633;47.628;19.158;2024-01-30T05:21:29;40.70;;;17.20;;
77520;SDS011;66633;47.628;19.158;2024-01-30T05:23:54;47.57;;;20.77;;
77520;SDS011;66633;47.628;19.158;2024-01-30T05:26:19;57.90;;;24.58;;
77520;SDS011;66633;47.628;19.158;2024-01-30T05:28:45;56.07;;;23.70;;
77520;SDS011;66633;47.628;19.158;2024-01-30T05:31:10;53.13;;;24.27;;
77520;SDS011;66633;47.628;19.158;2024-01-30T05:33:35;38.58;;;18.38;;
77520;SDS011;66633;47.628;19.158;2024-01-30T05:36:01;70.77;;;28.20;;
77520;SDS011;66633;47.628;19.158;2024-01-30T05:38:26;45.90;;;20.00;;
77520;SDS011;66633;47.628;19.158;2024-01-30T05:40:51;51.17;;;22.53;;
77520;SDS011;66633;47.628;19.158;2024-01-30T05:43:17;42.27;;;19.17;;
77520;SDS011;66633;47.628;19.158;2024-01-30T05:45:42;47.60;;;23.02;;
77520;SDS011;66633;47.628;19.158;2024-01-30T05:48:07;57.00;;;24.77;;
77520;SDS011;66633;47.628;19.158;2024-01-30T05:50:33;48.70;;;22.00;;
77520;SDS011;66633;47.628;19.158;2024-01-30T05:52:58;43.15;;;20.00;;
77520;SDS011;66633;47.628;19.158;2024-01-30T05:55:23;39.65;;;18.80;;
77520;SDS011;66633;47.628;19.158;2024-01-30T05:57:48;50.00;;;23.57;;
77520;SDS011;66633;47.628;19.158;2024-01-30T06:00:14;48.10;;;22.40;;
77520;SDS011;66633;47.628;19.158;2024-01-30T06:02:39;43.95;;;19.38;;
77520;SDS011;66633;47.628;19.158;2024-01-30T06:05:04;37.78;;;18.17;;
77520;SDS011;66633;47.628;19.158;2024-01-30T06:07:31;35.85;;;16.60;;
77520;SDS011;66633;47.628;19.158;2024-01-30T06:09:56;38.60;;;16.75;;
77520;SDS011;66633;47.628;19.158;2024-01-30T06:12:22;30.57;;;15.00;;
77520;SDS011;66633;47.628;19.158;2024-01-30T06:14:47;35.80;;;14.75;;
77520;SDS011;66633;47.628;19.158;2024-01-30T06:17:12;33.07;;;14.10;;
77520;SDS011;66633;47.628;19.158;2024-01-30T06:19:38;32.53;;;14.27;;
77520;SDS011;66633;47.628;19.158;2024-01-30T06:22:04;29.73;;;12.43;;
77520;SDS011;66633;47.628;19.158;2024-01-30T06:24:29;27.60;;;11.40;;
77520;SDS011;66633;47.628;19.158;2024-01-30T06:26:55;32.33;;;12.30;;
77520;SDS011;66633;47.628;19.158;2024-01-30T06:29:20;31.60;;;11.53;;
77520;SDS011;66633;47.628;19.158;2024-01-30T06:31:46;30.75;;;13.68;;
77520;SDS011;66633;47.628;19.158;2024-01-30T06:34:11;34.95;;;14.27;;
77520;SDS011;66633;47.628;19.158;2024-01-30T06:36:37;41.60;;;17.42;;
77520;SDS011;66633;47.628;19.158;2024-01-30T06:39:02;31.10;;;14.07;;
77520;SDS011;66633;47.628;19.158;2024-01-30T06:41:28;25.95;;;11.35;;
77520;SDS011;66633;47.628;19.158;2024-01-30T06:43:53;23.70;;;9.97;;
77520;SDS011;66633;47.628;19.158;2024-01-30T06:46:18;24.10;;;11.13;;
77520;SDS011;66633;47.628;19.158;2024-01-30T06:48:43;23.53;;;11.33;;
77520;SDS011;66633;47.628;19.158;2024-01-30T06:51:10;30.33;;;13.63;;
77520;SDS011;66633;47.628;19.158;2024-01-30T06:53:36;28.70;;;13.05;;
77520;SDS011;66633;47.628;19.158;2024-01-30T06:56:01;37.37;;;15.30;;
77520;SDS011;66633;47.628;19.158;2024-01-30T06:58:27;50.95;;;22.67;;
77520;SDS011;66633;47.628;19.158;2024-01-30T07:00:52;57.67;;;27.70;;
77520;SDS011;66633;47.628;19.158;2024-01-30T07:03:17;61.25;;;27.70;;
77520;SDS011;66633;47.628;19.158;2024-01-30T07:05:43;52.70;;;26.70;;
77520;SDS011;66633;47.628;19.158;2024-01-30T07:08:08;60.10;;;27.13;;
77520;SDS011;66633;47.628;19.158;2024-01-30T07:10:33;56.20;;;26.10;;
77520;SDS011;66633;47.628;19.158;2024-01-30T07:13:00;58.03;;;28.23;;
77520;SDS011;66633;47.628;19.158;2024-01-30T07:15:25;64.68;;;30.88;;
77520;SDS011;66633;47.628;19.158;2024-01-30T07:17:50;78.70;;;36.40;;
77520;SDS011;66633;47.628;19.158;2024-01-30T07:20:15;81.17;;;35.83;;
77520;SDS011;66633;47.628;19.158;2024-01-30T07:22:41;100.30;;;36.20;;
77520;SDS011;66633;47.628;19.158;2024-01-30T07:25:06;95.25;;;38.85;;
77520;SDS011;66633;47.628;19.158;2024-01-30T07:27:32;86.80;;;35.53;;
77520;SDS011;66633;47.628;19.158;2024-01-30T07:29:57;105.27;;;41.00;;
77520;SDS011;66633;47.628;19.158;2024-01-30T07:32:22;87.50;;;36.20;;
77520;SDS011;66633;47.628;19.158;2024-01-30T07:34:47;85.97;;;36.33;;
77520;SDS011;66633;47.628;19.158;2024-01-30T07:37:13;75.70;;;33.27;;
77520;SDS011;66633;47.628;19.158;2024-01-30T07:39:40;76.45;;;31.55;;
77520;SDS011;66633;47.628;19.158;2024-01-30T07:42:06;62.10;;;26.70;;
77520;SDS011;66633;47.628;19.158;2024-01-30T07:44:31;64.13;;;30.60;;
77520;SDS011;66633;47.628;19.158;2024-01-30T07:46:56;138.37;;;55.77;;
77520;SDS011;66633;47.628;19.158;2024-01-30T07:49:22;107.32;;;43.88;;
77520;SDS011;66633;47.628;19.158;2024-01-30T07:51:47;93.97;;;40.83;;
77520;SDS011;66633;47.628;19.158;2024-01-30T07:54:12;101.50;;;39.23;;
77520;SDS011;66633;47.628;19.158;2024-01-30T07:56:38;77.22;;;32.17;;
77520;SDS011;66633;47.628;19.158;2024-01-30T07:59:03;72.23;;;34.33;;
77520;SDS011;66633;47.628;19.158;2024-01-30T08:01:29;64.67;;;31.80;;
77520;SDS011;66633;47.628;19.158;2024-01-30T08:03:54;63.97;;;29.80;;
77520;SDS011;66633;47.628;19.158;2024-01-30T08:06:19;58.87;;;26.73;;
77520;SDS011;66633;47.628;19.158;2024-01-30T08:08:45;59.25;;;26.98;;
77520;SDS011;66633;47.628;19.158;2024-01-30T08:11:10;65.47;;;27.93;;
77520;SDS011;66633;47.628;19.158;2024-01-30T08:13:35;64.57;;;28.13;;
77520;SDS011;66633;47.628;19.158;2024-01-30T08:16:01;57.95;;;26.23;;
77520;SDS011;66633;47.628;19.158;2024-01-30T08:18:26;56.88;;;25.65;;
77520;SDS011;66633;47.628;19.158;2024-01-30T08:20:51;47.83;;;23.97;;
77520;SDS011;66633;47.628;19.158;2024-01-30T08:23:16;51.95;;;25.13;;
77520;SDS011;66633;47.628;19.158;2024-01-30T08:25:41;58.27;;;29.33;;
77520;SDS011;66633;47.628;19.158;2024-01-30T08:28:07;64.80;;;34.13;;
77520;SDS011;66633;47.628;19.158;2024-01-30T08:30:33;53.78;;;28.30;;
77520;SDS011;66633;47.628;19.158;2024-01-30T08:32:58;56.45;;;29.08;;
77520;SDS011;66633;47.628;19.158;2024-01-30T08:35:23;53.27;;;25.53;;
77520;SDS011;66633;47.628;19.158;2024-01-30T08:37:48;51.53;;;26.47;;
77520;SDS011;66633;47.628;19.158;2024-01-30T08:40:13;51.90;;;26.30;;
77520;SDS011;66633;47.628;19.158;2024-01-30T08:42:39;52.40;;;26.85;;
77520;SDS011;66633;47.628;19.158;2024-01-30T08:45:04;46.47;;;24.23;;
77520;SDS011;66633;47.628;19.158;2024-01-30T08:47:30;41.42;;;20.77;;
77520;SDS011;66633;47.628;19.158;2024-01-30T08:49:55;37.35;;;18.63;;
77520;SDS011;66633;47.628;19.158;2024-01-30T08:52:21;49.97;;;26.70;;
77520;SDS011;66633;47.628;19.158;2024-01-30T08:54:46;43.63;;;21.87;;
77520;SDS011;66633;47.628;19.158;2024-01-30T08:57:11;40.03;;;19.47;;
77520;SDS011;66633;47.628;19.158;2024-01-30T08:59:36;37.40;;;19.00;;
77520;SDS011;66633;47.628;19.158;2024-01-30T09:02:02;38.33;;;19.67;;
77520;SDS011;66633;47.628;19.158;2024-01-30T09:04:28;38.65;;;18.50;;
77520;SDS011;66633;47.628;19.158;2024-01-30T09:06:53;31.53;;;16.03;;
77520;SDS011;66633;47.628;19.158;2024-01-30T09:09:18;31.33;;;16.90;;
77520;SDS011;66633;47.628;19.158;2024-01-30T09:11:44;28.05;;;14.75;;
77520;SDS011;66633;47.628;19.158;2024-01-30T09:14:09;34.30;;;18.08;;
77520;SDS011;66633;47.628;19.158;2024-01-30T09:16:34;33.38;;;17.35;;
77520;SDS011;66633;47.628;19.158;2024-01-30T09:19:00;32.50;;;15.47;;
77520;SDS011;66633;47.628;19.158;2024-01-30T09:21:25;29.47;;;15.97;;
77520;SDS011;66633;47.628;19.158;2024-01-30T09:23:51;33.10;;;16.60;;
77520;SDS011;66633;47.628;19.158;2024-01-30T09:26:17;28.80;;;15.05;;
77520;SDS011;66633;47.628;19.158;2024-01-30T09:28:42;31.73;;;16.17;;
77520;SDS011;66633;47.628;19.158;2024-01-30T09:31:11;29.48;;;15.20;;
77520;SDS011;66633;47.628;19.158;2024-01-30T09:33:36;28.88;;;14.93;;
77520;SDS011;66633;47.628;19.158;2024-01-30T09:36:02;30.75;;;15.38;;
77520;SDS011;66633;47.628;19.158;2024-01-30T09:38:27;30.93;;;14.60;;
77520;SDS011;66633;47.628;19.158;2024-01-30T09:40:53;27.88;;;14.20;;
77520;SDS011;66633;47.628;19.158;2024-01-30T09:43:20;30.40;;;14.55;;
77520;SDS011;66633;47.628;19.158;2024-01-30T09:45:47;24.23;;;13.65;;
77520;SDS011;66633;47.628;19.158;2024-01-30T09:48:13;26.55;;;13.40;;
77520;SDS011;66633;47.628;19.158;2024-01-30T09:50:38;25.10;;;13.27;;
77520;SDS011;66633;47.628;19.158;2024-01-30T09:53:04;25.15;;;12.95;;
77520;SDS011;66633;47.628;19.158;2024-01-30T09:55:29;26.77;;;12.73;;
77520;SDS011;66633;47.628;19.158;2024-01-30T09:57:54;25.95;;;12.95;;
77520;SDS011;66633;47.628;19.158;2024-01-30T10:00:19;24.67;;;12.27;;
77520;SDS011;66633;47.628;19.158;2024-01-30T10:02:45;24.35;;;12.25;;
77520;SDS011;66633;47.628;19.158;2024-01-30T10:05:10;25.20;;;13.35;;
77520;SDS011;66633;47.628;19.158;2024-01-30T10:07:36;22.60;;;11.43;;
77520;SDS011;66633;47.628;19.158;2024-01-30T10:10:01;26.08;;;13.27;;
77520;SDS011;66633;47.628;19.158;2024-01-30T10:12:27;27.05;;;13.82;;
77520;SDS011;66633;47.628;19.158;2024-01-30T10:14:53;31.45;;;14.90;;
77520;SDS011;66633;47.628;19.158;2024-01-30T10:17:19;26.23;;;13.25;;
77520;SDS011;66633;47.628;19.158;2024-01-30T10:19:46;24.75;;;13.63;;
77520;SDS011;66633;47.628;19.158;2024-01-30T10:22:12;26.33;;;13.25;;
77520;SDS011;66633;47.628;19.158;2024-01-30T10:24:37;26.73;;;12.75;;
77520;SDS011;66633;47.628;19.158;2024-01-30T10:27:02;24.83;;;12.93;;
77520;SDS011;66633;47.628;19.158;2024-01-30T10:29:28;25.00;;;13.13;;
77520;SDS011;66633;47.628;19.158;2024-01-30T10:32:03;23.52;;;12.82;;
77520;SDS011;66633;47.628;19.158;2024-01-30T10:34:28;25.02;;;13.63;;
77520;SDS011;66633;47.628;19.158;2024-01-30T10:37:15;31.13;;;14.88;;
77520;SDS011;66633;47.628;19.158;2024-01-30T10:39:42;28.08;;;13.48;;
77520;SDS011;66633;47.628;19.158;2024-01-30T10:42:11;27.08;;;13.45;;
77520;SDS011;66633;47.628;19.158;2024-01-30T10:44:38;27.38;;;14.05;;
77520;SDS011;66633;47.628;19.158;2024-01-30T10:47:10;27.00;;;14.55;;
77520;SDS011;66633;47.628;19.158;2024-01-30T10:49:37;28.98;;;14.45;;
77520;SDS011;66633;47.628;19.158;2024-01-30T10:52:03;28.88;;;14.30;;
77520;SDS011;66633;47.628;19.158;2024-01-30T10:54:30;25.85;;;14.32;;
77520;SDS011;66633;47.628;19.158;2024-01-30T10:56:56;24.98;;;14.40;;
77520;SDS011;66633;47.628;19.158;2024-01-30T10:59:23;31.33;;;15.38;;
77520;SDS011;66633;47.628;19.158;2024-01-30T11:01:48;29.00;;;15.80;;
77520;SDS011;66633;47.628;19.158;2024-01-30T11:04:15;26.75;;;15.52;;
77520;SDS011;66633;47.628;19.158;2024-01-30T11:06:41;27.13;;;14.37;;
77520;SDS011;66633;47.628;19.158;2024-01-30T11:09:06;26.55;;;14.60;;
77520;SDS011;66633;47.628;19.158;2024-01-30T11:11:48;26.00;;;14.18;;
77520;SDS011;66633;47.628;19.158;2024-01-30T11:14:13;25.17;;;13.10;;
77520;SDS011;66633;47.628;19.158;2024-01-30T11:16:39;23.67;;;12.67;;
77520;SDS011;66633;47.628;19.158;2024-01-30T11:19:05;23.85;;;11.85;;
77520;SDS011;66633;47.628;19.158;2024-01-30T11:24:01;25.13;;;13.20;;
77520;SDS011;66633;47.628;19.158;2024-01-30T11:26:27;23.40;;;12.75;;
77520;SDS011;66633;47.628;19.158;2024-01-30T11:28:53;26.15;;;14.25;;
77520;SDS011;66633;47.628;19.158;2024-01-30T11:31:20;25.00;;;13.27;;
77520;SDS011;66633;47.628;19.158;2024-01-30T11:33:45;25.93;;;13.70;;
77520;SDS011;66633;47.628;19.158;2024-01-30T11:36:10;28.88;;;14.98;;
77520;SDS011;66633;47.628;19.158;2024-01-30T11:38:38;24.92;;;13.43;;
77520;SDS011;66633;47.628;19.158;2024-01-30T11:41:03;24.93;;;12.00;;
77520;SDS011;66633;47.628;19.158;2024-01-30T11:43:29;22.70;;;12.60;;
77520;SDS011;66633;47.628;19.158;2024-01-30T11:45:54;22.27;;;12.90;;
77520;SDS011;66633;47.628;19.158;2024-01-30T11:48:20;20.40;;;11.10;;
77520;SDS011;66633;47.628;19.158;2024-01-30T11:50:45;20.75;;;10.40;;
77520;SDS011;66633;47.628;19.158;2024-01-30T11:53:11;21.17;;;10.73;;
77520;SDS011;66633;47.628;19.158;2024-01-30T11:55:36;22.33;;;11.82;;
77520;SDS011;66633;47.628;19.158;2024-01-30T11:58:02;21.15;;;10.75;;
77520;SDS011;66633;47.628;19.158;2024-01-30T12:00:29;25.13;;;12.13;;
77520;SDS011;66633;47.628;19.158;2024-01-30T12:02:55;28.35;;;12.55;;
77520;SDS011;66633;47.628;19.158;2024-01-30T12:05:21;26.93;;;12.90;;
77520;SDS011;66633;47.628;19.158;2024-01-30T12:07:46;22.73;;;11.60;;
77520;SDS011;66633;47.628;19.158;2024-01-30T12:10:15;20.23;;;9.52;;
77520;SDS011;66633;47.628;19.158;2024-01-30T12:12:45;19.55;;;10.30;;
77520;SDS011;66633;47.628;19.158;2024-01-30T12:15:10;18.52;;;10.10;;
77520;SDS011;66633;47.628;19.158;2024-01-30T12:17:35;18.92;;;9.95;;
77520;SDS011;66633;47.628;19.158;2024-01-30T12:20:13;18.50;;;9.83;;
77520;SDS011;66633;47.628;19.158;2024-01-30T12:22:46;21.27;;;10.82;;
77520;SDS011;66633;47.628;19.158;2024-01-30T12:25:15;18.75;;;10.10;;
77520;SDS011;66633;47.628;19.158;2024-01-30T12:27:45;17.30;;;9.30;;
77520;SDS011;66633;47.628;19.158;2024-01-30T12:30:11;19.00;;;9.65;;
77520;SDS011;66633;47.628;19.158;2024-01-30T12:32:39;19.17;;;9.20;;
77520;SDS011;66633;47.628;19.158;2024-01-30T12:35:09;16.15;;;7.63;;
77520;SDS011;66633;47.628;19.158;2024-01-30T12:37:34;16.52;;;8.95;;
77520;SDS011;66633;47.628;19.158;2024-01-30T12:40:01;16.75;;;8.68;;
77520;SDS011;66633;47.628;19.158;2024-01-30T12:42:27;17.10;;;8.95;;
77520;SDS011;66633;47.628;19.158;2024-01-30T12:44:52;18.27;;;9.43;;
77520;SDS011;66633;47.628;19.158;2024-01-30T12:47:17;24.50;;;11.77;;
77520;SDS011;66633;47.628;19.158;2024-01-30T12:49:43;17.53;;;9.27;;
77520;SDS011;66633;47.628;19.158;2024-01-30T12:52:09;19.25;;;10.50;;
77520;SDS011;66633;47.628;19.158;2024-01-30T12:54:34;15.82;;;8.93;;
77520;SDS011;66633;47.628;19.158;2024-01-30T12:57:00;18.23;;;7.75;;
77520;SDS011;66633;47.628;19.158;2024-01-30T12:59:25;15.00;;;8.48;;
77520;SDS011;66633;47.628;19.158;2024-01-30T13:01:50;17.02;;;7.90;;
77520;SDS011;66633;47.628;19.158;2024-01-30T13:04:16;14.80;;;8.03;;
77520;SDS011;66633;47.628;19.158;2024-01-30T13:06:41;15.52;;;7.00;;
77520;SDS011;66633;47.628;19.158;2024-01-30T13:09:07;15.10;;;7.10;;
77520;SDS011;66633;47.628;19.158;2024-01-30T13:11:32;12.25;;;6.22;;
77520;SDS011;66633;47.628;19.158;2024-01-30T13:13:57;13.00;;;6.90;;
77520;SDS011;66633;47.628;19.158;2024-01-30T13:16:23;13.60;;;6.60;;
77520;SDS011;66633;47.628;19.158;2024-01-30T13:18:48;13.43;;;6.95;;
77520;SDS011;66633;47.628;19.158;2024-01-30T13:21:13;14.33;;;7.30;;
77520;SDS011;66633;47.628;19.158;2024-01-30T13:23:39;13.43;;;6.30;;
77520;SDS011;66633;47.628;19.158;2024-01-30T13:26:04;13.33;;;6.90;;
77520;SDS011;66633;47.628;19.158;2024-01-30T13:28:29;13.00;;;6.57;;
77520;SDS011;66633;47.628;19.158;2024-01-30T13:30:54;13.23;;;6.87;;
77520;SDS011;66633;47.628;19.158;2024-01-30T13:33:20;12.53;;;6.83;;
77520;SDS011;66633;47.628;19.158;2024-01-30T13:35:45;14.53;;;7.17;;
77520;SDS011;66633;47.628;19.158;2024-01-30T13:38:10;11.98;;;6.40;;
77520;SDS011;66633;47.628;19.158;2024-01-30T13:40:35;15.70;;;6.27;;
77520;SDS011;66633;47.628;19.158;2024-01-30T13:43:01;11.27;;;6.00;;
77520;SDS011;66633;47.628;19.158;2024-01-30T13:45:26;10.68;;;5.85;;
77520;SDS011;66633;47.628;19.158;2024-01-30T13:47:52;10.57;;;5.65;;
77520;SDS011;66633;47.628;19.158;2024-01-30T13:50:17;10.57;;;5.80;;
77520;SDS011;66633;47.628;19.158;2024-01-30T13:52:43;12.07;;;5.75;;
77520;SDS011;66633;47.628;19.158;2024-01-30T13:55:08;11.70;;;6.10;;
77520;SDS011;66633;47.628;19.158;2024-01-30T13:57:34;12.65;;;5.93;;
77520;SDS011;66633;47.628;19.158;2024-01-30T14:00:01;11.60;;;6.03;;
77520;SDS011;66633;47.628;19.158;2024-01-30T14:02:26;12.27;;;6.15;;
77520;SDS011;66633;47.628;19.158;2024-01-30T14:04:51;14.45;;;7.95;;